createdAt,value
2022-12-03T00:00:16.078Z,102581.41
2022-12-03T00:02:44.286Z,102580.50
2022-12-03T00:05:12.558Z,102576.38
2022-12-03T00:07:41.839Z,102580.72
2022-12-03T00:10:10.580Z,102553.66
2022-12-03T00:12:38.395Z,102566.56
2022-12-03T00:15:07.572Z,102574.47
2022-12-03T00:17:35.449Z,102566.75
2022-12-03T00:20:03.268Z,102570.28
2022-12-03T00:22:31.052Z,102561.31
2022-12-03T00:25:00.262Z,102565.28
2022-12-03T00:27:28.178Z,102529.94
2022-12-03T00:29:56.055Z,102565.06
2022-12-03T00:32:23.880Z,102566.00
2022-12-03T00:34:52.019Z,102561.69
2022-12-03T00:37:20.076Z,102570.38
2022-12-03T00:39:47.873Z,102561.78
2022-12-03T00:42:17.046Z,102558.34
2022-12-03T00:44:44.909Z,102557.22
2022-12-03T00:47:12.794Z,102550.91
2022-12-03T00:49:41.319Z,102556.22
2022-12-03T00:52:09.116Z,102549.03
2022-12-03T00:54:36.904Z,102539.84
2022-12-03T00:57:04.896Z,102553.69
2022-12-03T00:59:34.102Z,102552.81
2022-12-03T01:02:02.005Z,102556.34
2022-12-03T01:04:30.003Z,102550.97
2022-12-03T01:06:57.829Z,102550.91
2022-12-03T01:09:25.641Z,102548.75
2022-12-03T01:11:53.429Z,102540.38
2022-12-03T01:14:21.667Z,102550.03
2022-12-03T01:16:50.857Z,102550.97
2022-12-03T01:19:19.485Z,102548.75
2022-12-03T01:21:49.731Z,102545.34
2022-12-03T01:24:18.158Z,102547.03
2022-12-03T01:26:46.211Z,102510.66
2022-12-03T01:29:14.358Z,102544.84
2022-12-03T01:31:59.463Z,102553.75
2022-12-03T01:34:28.738Z,102544.13
2022-12-03T01:36:56.613Z,102549.19
2022-12-03T01:39:24.491Z,102549.19
2022-12-03T01:41:53.827Z,102538.88
2022-12-03T01:44:24.537Z,102543.41
2022-12-03T01:46:55.160Z,102504.66
2022-12-03T01:49:27.142Z,102545.47
2022-12-03T01:51:57.436Z,102532.00
2022-12-03T01:54:28.373Z,102525.38
2022-12-03T01:56:56.659Z,102501.72
2022-12-03T01:59:33.359Z,102515.81
2022-12-03T02:02:06.810Z,102519.69
2022-12-03T02:04:34.775Z,102520.31
2022-12-03T02:10:01.949Z,102520.41
2022-12-03T02:12:35.389Z,102525.56
2022-12-03T02:15:04.018Z,102516.84
2022-12-03T02:17:32.588Z,102521.84
2022-12-03T02:20:01.729Z,102513.59
2022-12-03T02:22:38.496Z,102516.91
2022-12-03T02:25:23.384Z,102518.66
2022-12-03T02:27:51.968Z,102518.44
2022-12-03T02:30:21.418Z,102523.75
2022-12-03T02:32:50.113Z,102523.63
2022-12-03T02:35:20.920Z,102524.03
2022-12-03T02:37:51.665Z,102522.84
2022-12-03T02:40:21.741Z,102528.72
2022-12-03T02:42:54.095Z,102522.50
2022-12-03T02:45:25.093Z,102526.19
2022-12-03T02:47:56.090Z,102520.81
2022-12-03T02:50:27.477Z,102506.47
2022-12-03T02:52:57.203Z,102514.50
2022-12-03T02:55:26.126Z,102517.69
2022-12-03T02:57:55.421Z,102516.75
2022-12-03T03:00:24.061Z,102505.88
2022-12-03T03:02:52.139Z,102520.75
2022-12-03T03:05:23.117Z,102512.78
2022-12-03T03:07:52.184Z,102519.72
2022-12-03T03:10:24.029Z,102519.78
2022-12-03T03:12:56.010Z,102520.50
2022-12-03T03:15:24.822Z,102516.53
2022-12-03T03:17:52.996Z,102518.78
2022-12-03T03:20:21.056Z,102514.28
2022-12-03T03:22:48.829Z,102519.19
2022-12-03T03:25:21.059Z,102489.44
2022-12-03T03:27:49.109Z,102501.31
2022-12-03T03:30:18.524Z,102518.78
2022-12-03T03:32:46.722Z,102528.09
2022-12-03T03:35:14.961Z,102526.28
2022-12-03T03:37:43.354Z,102512.50
2022-12-03T03:40:12.026Z,102515.88
2022-12-03T03:42:40.522Z,102514.38
2022-12-03T03:45:10.451Z,102511.47
2022-12-03T03:47:40.368Z,102511.78
2022-12-03T03:50:09.879Z,102514.88
2022-12-03T03:52:38.850Z,102510.53
2022-12-03T03:55:08.193Z,102512.25
2022-12-03T03:57:36.300Z,102497.31
2022-12-03T04:00:06.906Z,102504.22
2022-12-03T04:02:35.118Z,102504.44
2022-12-03T04:05:04.607Z,102499.28
2022-12-03T04:07:32.496Z,102493.31
2022-12-03T04:10:20.299Z,102492.69
2022-12-03T04:12:55.984Z,102489.06
2022-12-03T04:15:24.264Z,102486.31
2022-12-03T04:18:06.296Z,102494.06
2022-12-03T04:20:35.487Z,102466.22
2022-12-03T04:23:02.290Z,102490.66
2022-12-03T04:25:47.855Z,102483.81
2022-12-03T04:28:33.315Z,102489.03
2022-12-03T04:31:21.282Z,102491.25
2022-12-03T04:34:06.658Z,102478.59
2022-12-03T04:36:35.852Z,102491.56
2022-12-03T04:39:03.685Z,102380.09
2022-12-03T04:41:31.588Z,102483.97
2022-12-03T04:44:18.907Z,102478.03
2022-12-03T04:46:46.717Z,102479.06
2022-12-03T04:49:14.511Z,102487.59
2022-12-03T04:51:43.664Z,102486.72
2022-12-03T04:54:11.442Z,102477.66
2022-12-03T04:56:39.255Z,102472.28
2022-12-03T04:59:11.323Z,102477.53
2022-12-03T05:01:42.420Z,102470.91
2022-12-03T05:04:10.412Z,102463.72
2022-12-03T05:06:38.215Z,102465.56
2022-12-03T05:09:07.524Z,102474.31
2022-12-03T05:11:35.610Z,102470.22
2022-12-03T05:14:03.468Z,102464.84
2022-12-03T05:16:31.313Z,102470.00
2022-12-03T05:18:59.309Z,102448.59
2022-12-03T05:21:27.179Z,102471.47
2022-12-03T05:23:55.037Z,102464.03
2022-12-03T05:26:24.555Z,102458.31
2022-12-03T05:28:52.398Z,102459.47
2022-12-03T05:31:20.311Z,102458.75
2022-12-03T05:33:48.146Z,102457.81
2022-12-03T05:36:16.646Z,102419.34
2022-12-03T05:38:44.474Z,102429.78
2022-12-03T05:41:29.863Z,102461.22
2022-12-03T05:43:59.036Z,102461.16
2022-12-03T05:46:26.907Z,102444.94
2022-12-03T05:48:54.785Z,102459.59
2022-12-03T05:51:22.628Z,102444.47
2022-12-03T05:53:50.397Z,102448.88
2022-12-03T05:56:18.175Z,102436.50
2022-12-03T05:58:45.988Z,102443.38
2022-12-03T06:01:15.202Z,102447.13
2022-12-03T06:03:43.121Z,102449.09
2022-12-03T06:06:11.100Z,102445.19
2022-12-03T06:08:38.946Z,102440.81
2022-12-03T06:11:06.997Z,102447.00
2022-12-03T06:13:34.784Z,102443.91
2022-12-03T06:16:02.683Z,102444.84
2022-12-03T06:18:31.929Z,102436.16
2022-12-03T06:20:59.751Z,102442.53
2022-12-03T06:23:27.546Z,102442.25
2022-12-03T06:25:55.406Z,102439.97
2022-12-03T06:28:23.309Z,102445.06
2022-12-03T06:30:51.172Z,102434.75
2022-12-03T06:33:18.984Z,102447.69
2022-12-03T06:35:48.153Z,102445.06
2022-12-03T06:38:15.979Z,102446.00
2022-12-03T06:40:43.776Z,102447.81
2022-12-03T06:43:11.555Z,102440.81
2022-12-03T06:45:42.142Z,102453.63
2022-12-03T06:48:13.996Z,102434.88
2022-12-03T06:50:41.800Z,102443.97
2022-12-03T06:53:10.953Z,102434.75
2022-12-03T06:55:38.752Z,102434.41
2022-12-03T06:58:06.590Z,102399.34
2022-12-03T07:00:34.458Z,102443.09
2022-12-03T07:03:02.346Z,102445.50
2022-12-03T07:05:30.369Z,102436.88
2022-12-03T07:07:58.231Z,102443.69
2022-12-03T07:10:27.517Z,102435.34
2022-12-03T07:12:55.328Z,102439.63
2022-12-03T07:15:23.156Z,102432.78
2022-12-03T07:17:51.143Z,102436.41
2022-12-03T07:20:19.124Z,102402.97
2022-12-03T07:22:46.957Z,102424.75
2022-12-03T07:25:19.670Z,102428.50
2022-12-03T07:27:52.378Z,102434.41
2022-12-03T07:30:20.621Z,102421.13
2022-12-03T07:32:48.564Z,102424.69
2022-12-03T07:35:16.573Z,102419.97
2022-12-03T07:37:44.577Z,102428.97
2022-12-03T07:40:13.510Z,102426.38
2022-12-03T07:42:41.297Z,102427.91
2022-12-03T07:45:11.795Z,102412.97
2022-12-03T07:47:39.601Z,102429.78
2022-12-03T07:50:08.667Z,102429.25
2022-12-03T07:52:36.491Z,102419.59
2022-12-03T07:55:04.499Z,102434.09
2022-12-03T07:57:32.562Z,102421.41
2022-12-03T08:00:00.298Z,102426.31
2022-12-03T08:02:29.552Z,102425.78
2022-12-03T08:04:57.527Z,102425.56
2022-12-03T08:07:25.501Z,102372.69
2022-12-03T08:09:53.378Z,102411.56
2022-12-03T08:12:39.953Z,102317.34
2022-12-03T08:15:13.317Z,102403.09
2022-12-03T08:17:43.323Z,102404.78
2022-12-03T08:20:15.168Z,102401.53
2022-12-03T08:22:43.776Z,102402.31
2022-12-03T08:25:18.068Z,102378.00
2022-12-03T08:27:45.890Z,102413.88
2022-12-03T08:30:16.204Z,102395.00
2022-12-03T08:32:45.811Z,102418.88
2022-12-03T08:35:15.063Z,102413.66
2022-12-03T08:37:42.885Z,102406.81
2022-12-03T08:40:23.643Z,102406.66
2022-12-03T08:42:51.519Z,102410.09
2022-12-03T08:45:40.610Z,102398.63
2022-12-03T08:48:32.577Z,102418.44
2022-12-03T08:51:04.734Z,102409.16
2022-12-03T08:53:37.826Z,102405.28
2022-12-03T08:56:14.686Z,102413.31
2022-12-03T08:58:44.655Z,102400.38
2022-12-03T09:01:34.772Z,102410.44
2022-12-03T09:04:27.500Z,102404.91
2022-12-03T09:06:56.024Z,102395.09
2022-12-03T09:09:24.884Z,102398.69
2022-12-03T09:11:53.861Z,102407.34
2022-12-03T09:14:22.722Z,102397.94
2022-12-03T09:16:51.970Z,102414.84
2022-12-03T09:19:19.875Z,102412.75
2022-12-03T09:21:49.076Z,102402.84
2022-12-03T09:24:16.971Z,102415.47
2022-12-03T09:26:44.847Z,102410.03
2022-12-03T09:29:13.066Z,102404.69
2022-12-03T09:31:41.435Z,102409.00
2022-12-03T09:34:10.019Z,102382.41
2022-12-03T09:36:37.945Z,102399.56
2022-12-03T09:39:07.658Z,102401.19
2022-12-03T09:41:35.550Z,102394.88
2022-12-03T09:44:05.242Z,102389.94
2022-12-03T09:46:35.298Z,102379.19
2022-12-03T09:49:03.955Z,102382.81
2022-12-03T09:51:35.528Z,102387.31
2022-12-03T09:54:05.848Z,102384.94
2022-12-03T09:56:38.639Z,102382.34
2022-12-03T09:59:07.910Z,102360.47
2022-12-03T10:01:36.160Z,102373.81
2022-12-03T10:04:04.261Z,102376.78
2022-12-03T10:06:32.233Z,102377.59
2022-12-03T10:09:00.342Z,102373.97
2022-12-03T10:11:28.490Z,102367.91
2022-12-03T10:13:59.478Z,102367.25
2022-12-03T10:16:29.699Z,102363.84
2022-12-03T10:19:01.503Z,102365.53
2022-12-03T10:21:32.305Z,102360.06
2022-12-03T10:24:24.048Z,102361.31
2022-12-03T10:26:53.660Z,102354.75
2022-12-03T10:29:29.886Z,102359.88
2022-12-03T10:32:04.768Z,102345.75
2022-12-03T10:34:34.842Z,102353.25
2022-12-03T10:37:12.179Z,102350.75
2022-12-03T10:39:58.214Z,102337.84
2022-12-03T10:42:27.804Z,102344.59
2022-12-03T10:45:18.134Z,102331.94
2022-12-03T10:48:04.033Z,102333.06
2022-12-03T10:50:32.597Z,102309.16
2022-12-03T10:53:00.810Z,102328.53
2022-12-03T10:55:30.130Z,102309.38
2022-12-03T10:57:58.580Z,102327.72
2022-12-03T11:00:27.939Z,102322.69
2022-12-03T11:02:57.178Z,102320.22
2022-12-03T11:05:28.148Z,102302.66
2022-12-03T11:07:57.132Z,102318.69
2022-12-03T11:10:25.175Z,102321.09
2022-12-03T11:13:26.817Z,102314.06
2022-12-03T11:15:56.128Z,102315.25
2022-12-03T11:18:57.206Z,102290.25
2022-12-03T11:21:25.223Z,102313.69
2022-12-03T11:24:21.903Z,102286.97
2022-12-03T11:27:16.917Z,102303.06
2022-12-03T11:30:02.073Z,102296.28
2022-12-03T11:33:07.304Z,102300.00
2022-12-03T11:36:15.414Z,102296.47
2022-12-03T11:38:56.295Z,102289.47
2022-12-03T11:41:27.172Z,102284.53
2022-12-03T11:44:27.529Z,102280.44
2022-12-03T11:46:56.547Z,102267.09
2022-12-03T11:49:30.045Z,102263.91
2022-12-03T11:51:58.980Z,102250.38
2022-12-03T11:54:28.404Z,102263.19
2022-12-03T11:56:57.194Z,102269.28
2022-12-03T11:59:25.032Z,102257.78
2022-12-03T12:01:52.889Z,102223.75
2022-12-03T12:04:33.714Z,102244.22
2022-12-03T12:07:02.433Z,102241.53
2022-12-03T12:09:52.540Z,102250.34
2022-12-03T12:12:28.184Z,102246.06
2022-12-03T12:14:56.146Z,102241.91
2022-12-03T12:17:35.130Z,102244.44
2022-12-03T12:20:25.648Z,102221.03
2022-12-03T12:22:54.157Z,102217.53
2022-12-03T12:25:41.276Z,102150.91
2022-12-03T12:28:09.673Z,102227.94
2022-12-03T12:30:37.528Z,102221.19
2022-12-03T12:33:23.226Z,102213.91
2022-12-03T12:35:51.976Z,102218.63
2022-12-03T12:38:21.266Z,102227.84
2022-12-03T12:40:51.638Z,102220.81
2022-12-03T12:43:26.291Z,102167.88
2022-12-03T12:45:56.096Z,102220.81
2022-12-03T12:48:26.790Z,102187.88
2022-12-03T12:51:02.126Z,102200.50
2022-12-03T12:53:32.243Z,102181.44
2022-12-03T12:56:03.345Z,102204.91
2022-12-03T12:58:33.526Z,102218.63
2022-12-03T13:01:04.982Z,102204.22
2022-12-03T13:03:35.219Z,102193.78
2022-12-03T13:06:03.579Z,102185.31
2022-12-03T13:08:33.736Z,102197.47
2022-12-03T13:11:03.467Z,102151.72
2022-12-03T13:13:41.636Z,102195.63
2022-12-03T13:16:19.398Z,102183.66
2022-12-03T13:18:49.616Z,102189.00
2022-12-03T13:21:26.774Z,102134.59
2022-12-03T13:23:56.896Z,102179.47
2022-12-03T13:26:38.738Z,102183.00
2022-12-03T13:29:15.659Z,102162.03
2022-12-03T13:31:50.306Z,102178.41
2022-12-03T13:34:21.686Z,102090.13
2022-12-03T13:36:56.998Z,102175.19
2022-12-03T13:39:30.699Z,102179.84
2022-12-03T13:42:27.456Z,102139.56
2022-12-03T13:44:55.681Z,102173.81
2022-12-03T13:47:24.953Z,102177.50
2022-12-03T13:49:56.163Z,102167.19
2022-12-03T13:52:26.967Z,102164.16
2022-12-03T13:54:56.922Z,102174.72
2022-12-03T13:57:26.080Z,102157.50
2022-12-03T13:59:54.263Z,102164.59
2022-12-03T14:02:22.271Z,102165.94
2022-12-03T14:04:52.151Z,102166.19
2022-12-03T14:07:23.215Z,102159.16
2022-12-03T14:09:51.186Z,102152.88
2022-12-03T14:12:29.006Z,102138.88
2022-12-03T14:14:58.516Z,102157.53
2022-12-03T14:17:26.345Z,102153.38
2022-12-03T14:19:54.607Z,102144.63
2022-12-03T14:22:25.262Z,102160.28
2022-12-03T14:24:54.104Z,102160.44
2022-12-03T14:27:22.378Z,102149.13
2022-12-03T14:29:50.293Z,102139.06
2022-12-03T14:32:19.493Z,102145.03
2022-12-03T14:34:47.276Z,102137.94
2022-12-03T14:37:15.250Z,102141.53
2022-12-03T14:39:43.200Z,102137.31
2022-12-03T14:42:17.049Z,102142.22
2022-12-03T14:44:46.778Z,102129.44
2022-12-03T14:47:16.056Z,102128.22
2022-12-03T14:49:45.371Z,102140.44
2022-12-03T14:52:13.213Z,102134.69
2022-12-03T14:54:42.445Z,102132.84
2022-12-03T14:57:12.511Z,102132.09
2022-12-03T14:59:40.711Z,102130.16
2022-12-03T15:02:09.042Z,102128.59
2022-12-03T15:04:37.156Z,102134.41
2022-12-03T15:07:06.906Z,102131.72
2022-12-03T15:09:35.163Z,102134.28
2022-12-03T15:12:02.981Z,102142.13
2022-12-03T15:14:30.905Z,102136.06
2022-12-03T15:16:59.055Z,102124.81
2022-12-03T15:19:27.577Z,102126.50
2022-12-03T15:21:55.494Z,102131.19
2022-12-03T15:24:24.777Z,102134.50
2022-12-03T15:26:53.557Z,102082.31
2022-12-03T15:29:21.936Z,102130.88
2022-12-03T15:31:50.018Z,102098.59
2022-12-03T15:34:22.531Z,102137.81
2022-12-03T15:36:51.025Z,102135.41
2022-12-03T15:39:18.894Z,102134.50
2022-12-03T15:41:48.173Z,102127.47
2022-12-03T15:44:16.175Z,102127.38
2022-12-03T15:46:44.220Z,102134.50
2022-12-03T15:49:12.316Z,102124.31
2022-12-03T15:51:40.248Z,102140.56
2022-12-03T15:54:08.097Z,102135.38
2022-12-03T15:56:37.671Z,102131.03
2022-12-03T15:59:07.151Z,102057.84
2022-12-03T16:01:35.206Z,102059.41
2022-12-03T16:04:03.421Z,102129.53
2022-12-03T16:06:31.340Z,102126.16
2022-12-03T16:08:59.746Z,102131.22
2022-12-03T16:11:27.766Z,102128.75
2022-12-03T16:13:55.968Z,102127.91
2022-12-03T16:16:25.351Z,102107.88
2022-12-03T16:18:53.341Z,102130.22
2022-12-03T16:21:26.439Z,102118.47
2022-12-03T16:23:55.541Z,102122.66
2022-12-03T16:26:23.967Z,102121.69
2022-12-03T16:28:51.927Z,102117.50
2022-12-03T16:31:20.207Z,102101.66
2022-12-03T16:33:49.908Z,102099.03
2022-12-03T16:36:17.774Z,102122.47
2022-12-03T16:38:46.028Z,102111.13
2022-12-03T16:41:13.852Z,102117.47
2022-12-03T16:43:41.705Z,102120.91
2022-12-03T16:46:25.595Z,102122.66
2022-12-03T16:48:56.587Z,102125.91
2022-12-03T16:51:24.898Z,102120.56
2022-12-03T16:53:52.788Z,102079.44
2022-12-03T16:56:20.848Z,102111.13
2022-12-03T16:58:48.841Z,102066.84
2022-12-03T17:01:16.898Z,102119.06
2022-12-03T17:03:44.780Z,102108.75
2022-12-03T17:06:14.122Z,102110.47
2022-12-03T17:08:47.367Z,102112.97
2022-12-03T17:11:17.100Z,102107.09
2022-12-03T17:13:45.040Z,102112.78
2022-12-03T17:16:12.974Z,102115.56
2022-12-03T17:18:40.970Z,102108.50
2022-12-03T17:21:08.791Z,102100.19
2022-12-03T17:23:37.988Z,102107.88
2022-12-03T17:26:06.095Z,102107.00
2022-12-03T17:28:34.106Z,102096.69
2022-12-03T17:31:02.096Z,102102.66
2022-12-03T17:33:29.993Z,102100.13
2022-12-03T17:35:57.837Z,102098.50
2022-12-03T17:38:25.769Z,102102.78
2022-12-03T17:40:54.943Z,102097.63
2022-12-03T17:43:22.962Z,102084.13
2022-12-03T17:45:50.728Z,102097.19
2022-12-03T17:48:18.509Z,102091.81
2022-12-03T17:50:46.404Z,102082.03
2022-12-03T17:53:14.200Z,102092.59
2022-12-03T17:55:45.026Z,102090.19
2022-12-03T17:58:14.874Z,102090.25
2022-12-03T18:00:42.736Z,102031.81
2022-12-03T18:03:10.663Z,102089.41
2022-12-03T18:05:38.597Z,102077.47
2022-12-03T18:08:07.432Z,102083.75
2022-12-03T18:10:35.421Z,102051.94
2022-12-03T18:13:03.341Z,102077.69
2022-12-03T18:15:33.219Z,102075.91
2022-12-03T18:18:01.025Z,102068.41
2022-12-03T18:20:29.097Z,102072.53
2022-12-03T18:22:58.289Z,102079.72
2022-12-03T18:25:26.511Z,102080.50
2022-12-03T18:27:54.360Z,102078.81
2022-12-03T18:30:22.186Z,102089.91
2022-12-03T18:32:51.653Z,102071.50
2022-12-03T18:35:20.677Z,102076.75
2022-12-03T18:37:50.999Z,102050.44
2022-12-03T18:40:22.438Z,102080.81
2022-12-03T18:42:50.390Z,102078.41
2022-12-03T18:45:18.412Z,102092.22
2022-12-03T18:47:46.432Z,102081.91
2022-12-03T18:50:15.823Z,102082.88
2022-12-03T18:52:43.664Z,102048.88
2022-12-03T18:55:18.815Z,102077.56
2022-12-03T18:57:46.936Z,102044.38
2022-12-03T19:00:15.767Z,102079.31
2022-12-03T19:05:34.956Z,102075.75
2022-12-03T19:08:03.587Z,102085.31
2022-12-03T19:10:31.580Z,102032.28
2022-12-03T19:12:59.428Z,102082.00
2022-12-03T19:15:27.283Z,102078.31
2022-12-03T19:17:55.265Z,102069.66
2022-12-03T19:20:23.276Z,102046.34
2022-12-03T19:22:52.444Z,102073.31
2022-12-03T19:25:20.552Z,102077.88
2022-12-03T19:27:50.260Z,102053.22
2022-12-03T19:30:18.566Z,102070.16
2022-12-03T19:32:46.490Z,102067.59
2022-12-03T19:35:14.337Z,101926.00
2022-12-03T19:37:42.262Z,102058.25
2022-12-03T19:40:12.154Z,102065.91
2022-12-03T19:42:40.315Z,102068.47
2022-12-03T19:45:09.197Z,102066.16
2022-12-03T19:47:37.338Z,102074.59
2022-12-03T19:50:05.857Z,102056.75
2022-12-03T19:52:36.281Z,102025.06
2022-12-03T19:55:04.977Z,102070.47
2022-12-03T19:57:34.186Z,102073.09
2022-12-03T20:00:02.204Z,102068.56
2022-12-03T20:02:30.234Z,102075.59
2022-12-03T20:04:58.135Z,102075.56
2022-12-03T20:07:26.167Z,102063.31
2022-12-03T20:09:54.310Z,102069.22
2022-12-03T20:12:22.400Z,102086.41
2022-12-03T20:14:51.700Z,102093.41
2022-12-03T20:17:19.520Z,102080.47
2022-12-03T20:19:47.456Z,102068.09
2022-12-03T20:22:15.278Z,102085.63
2022-12-03T20:24:43.340Z,102064.94
2022-12-03T20:27:11.124Z,102057.78
2022-12-03T20:29:39.503Z,102084.66
2022-12-03T20:32:08.846Z,102078.41
2022-12-03T20:34:36.829Z,102080.63
2022-12-03T20:37:04.680Z,102080.47
2022-12-03T20:39:32.556Z,102089.88
2022-12-03T20:42:00.396Z,102080.16
2022-12-03T20:44:28.275Z,102088.53
2022-12-03T20:46:56.117Z,102087.34
2022-12-03T20:49:25.377Z,102079.41
2022-12-03T20:51:53.246Z,102057.56
2022-12-03T20:54:21.094Z,102072.25
2022-12-03T20:56:48.999Z,102085.91
2022-12-03T20:59:18.304Z,102074.72
2022-12-03T21:01:46.467Z,102050.59
2022-12-03T21:04:15.999Z,102054.78
2022-12-03T21:06:46.407Z,102081.31
2022-12-03T21:09:14.334Z,102077.63
2022-12-03T21:11:42.628Z,102030.66
2022-12-03T21:14:11.967Z,102029.00
2022-12-03T21:19:30.035Z,102077.81
2022-12-03T21:21:59.342Z,102092.47
2022-12-03T21:24:27.239Z,102081.59
2022-12-03T21:26:55.095Z,102083.38
2022-12-03T21:29:23.445Z,102085.97
2022-12-03T21:31:51.410Z,102075.03
2022-12-03T21:34:19.361Z,102037.38
2022-12-03T21:36:47.373Z,102067.25
2022-12-03T21:39:16.732Z,102063.69
2022-12-03T21:42:33.657Z,102069.94
2022-12-03T21:44:32.466Z,102060.25
2022-12-03T21:47:11.892Z,102077.75
2022-12-03T21:49:42.162Z,101981.00
2022-12-03T21:52:10.347Z,102075.03
2022-12-03T21:54:39.637Z,102062.84
2022-12-03T21:57:07.482Z,102059.56
2022-12-03T21:59:35.261Z,102063.94
2022-12-03T22:02:03.338Z,102075.88
2022-12-03T22:04:31.348Z,102058.97
2022-12-03T22:06:59.169Z,102054.59
2022-12-03T22:09:27.245Z,102025.59
2022-12-03T22:11:59.203Z,102065.84
2022-12-03T22:14:27.049Z,102063.19
2022-12-03T22:16:54.864Z,102070.13
2022-12-03T22:19:23.328Z,102067.25
2022-12-03T22:21:51.172Z,102060.34
2022-12-03T22:24:19.567Z,102069.19
2022-12-03T22:26:47.458Z,102035.56
2022-12-03T22:29:16.867Z,102057.31
2022-12-03T22:31:44.678Z,102063.09
2022-12-03T22:34:12.487Z,102061.59
2022-12-03T22:36:40.293Z,102061.69
2022-12-03T22:39:08.074Z,102064.13
2022-12-03T22:41:35.911Z,102062.28
2022-12-03T22:44:03.815Z,102057.84
2022-12-03T22:46:33.206Z,102061.50
2022-12-03T22:49:06.829Z,102057.06
2022-12-03T22:51:35.886Z,102065.88
2022-12-03T22:54:03.765Z,102068.41
2022-12-03T22:56:31.868Z,102055.97
2022-12-03T22:58:59.870Z,101999.56
2022-12-03T23:01:29.379Z,102070.16
2022-12-03T23:03:58.860Z,102072.00
2022-12-03T23:06:27.476Z,102067.53
2022-12-03T23:08:56.229Z,102067.28
2022-12-03T23:11:24.367Z,102059.94
2022-12-03T23:13:52.491Z,102049.34
2022-12-03T23:16:23.376Z,102065.28
2022-12-03T23:18:51.629Z,102062.59
2022-12-03T23:21:29.383Z,102070.53
2022-12-03T23:23:57.971Z,102067.09
2022-12-03T23:26:25.849Z,102052.19
2022-12-03T23:28:53.646Z,102056.34
2022-12-03T23:31:25.194Z,102070.75
2022-12-03T23:33:53.645Z,102051.31
2022-12-03T23:36:25.220Z,102064.50
2022-12-03T23:38:53.075Z,102054.88
2022-12-03T23:41:22.727Z,102049.03
2022-12-03T23:43:50.660Z,102073.75
2022-12-03T23:46:21.082Z,102062.56
2022-12-03T23:48:49.067Z,102073.88
2022-12-03T23:51:19.269Z,102063.34
2022-12-03T23:53:48.810Z,102060.84
2022-12-03T23:56:18.977Z,102066.66
2022-12-03T23:58:47.059Z,102067.72
